上海/浦東 の空港の天気 - METARとTAF

上海浦東国際空港 ( ZSPD / PVG ) - 中国 上海市
飛行場実況気象(Metar)
観測時間02/18 07:00 CST (02/17 23:00 UTC)
風向・風速東 6m/s
視程10km以上
天気現象弱い雨
全天を覆う雲 雲底高度 1220m
気温6℃
湿度87%
気圧1024hPa
METARZSPD 172300Z 08006MPS 9999 -RA OVC040 06/04 Q1024 NOSIG
過去の天気等 Google飛行場航空写真 Wunderground天気予報

過去48時間のMETAR

飛行場予報(TAF)
発表時間: 2/17 23:12 CST (2/17 15:12 UTC)
予報対象時間: 18日2時 CST ~ 19日2時 CST
風向・風速北東 4m/s
視程6000m
全天の8割程度の雲 雲底高度 400m
18日6時 CST ~ 18日8時 CST に徐々に
風向・風速東 4m/s
TAF ZSPD 171512Z 1718/1818 05004MPS 6000 BKN013 TX08/1806Z TN02/1721Z
BECMG 1722/1724 09004MPS